Time;durP1;ratioP1;P1;durP2;ratioP2;P2;SDS_P1;SDS_P2;PMS_P1;PMS_P2;Temp;Humidity;BMP_temperature;BMP_pressure;BME280_temperature;BME280_humidity;BME280_pressure;Samples;Min_cycle;Max_cycle;Signal;HPM_P1;HPM_P2
2021/12/03 00:01:28;;;;;;;4.00;1.52;;;;;;;;;;5010939;28;20521;-72
2021/12/03 00:03:54;;;;;;;6.25;1.50;;;;;;;;;;5011369;28;20363;-72
2021/12/03 00:06:21;;;;;;;4.55;1.63;;;;;;;;;;5011040;28;20042;-72
2021/12/03 00:08:47;;;;;;;6.07;1.25;;;;;;;;;;5012422;28;20061;-72
2021/12/03 00:11:13;;;;;;;12.82;2.05;;;;;;;;;;5010731;28;20062;-72
2021/12/03 00:13:40;;;;;;;8.77;1.60;;;2.80;99.90;;;;;;5011131;28;20060;-72
2021/12/03 00:16:06;;;;;;;3.47;1.50;;;;;;;;;;5011189;28;20038;-72
2021/12/03 00:18:33;;;;;;;6.60;1.98;;;;;;;;;;5011215;28;20038;-72
2021/12/03 00:21:03;;;;;;;4.50;1.30;;;2.90;99.90;;;;;;5011356;28;20472;-72
2021/12/03 00:23:29;;;;;;;2.80;1.38;;;;;;;;;;5009714;28;20033;-72
2021/12/03 00:25:57;;;;;;;4.53;1.58;;;3.00;99.90;;;;;;5011187;28;20056;-72
2021/12/03 00:28:23;;;;;;;6.70;1.80;;;;;;;;;;5010896;28;20045;-72
2021/12/03 00:30:49;;;;;;;5.85;2.10;;;;;;;;;;5010762;28;20099;-72
2021/12/03 00:33:15;;;;;;;7.32;1.50;;;;;;;;;;5009853;28;20674;-72
2021/12/03 00:35:41;;;;;;;8.20;1.60;;;;;;;;;;5010793;28;20121;-72
2021/12/03 00:38:07;;;;;;;3.53;1.40;;;;;;;;;;4994800;28;20498;-72
2021/12/03 00:40:38;;;;;;;3.45;1.33;;;3.00;99.90;;;;;;5010985;28;20497;-72
2021/12/03 00:43:05;;;;;;;4.30;1.48;;;;;;;;;;5010667;28;20045;-72
2021/12/03 00:45:32;;;;;;;7.75;1.90;;;;;;;;;;5010624;28;20049;-73
2021/12/03 00:47:58;;;;;;;6.95;1.48;;;2.90;99.90;;;;;;5013488;28;20049;-72
2021/12/03 00:50:25;;;;;;;4.95;1.23;;;;;;;;;;5014347;28;20069;-72
2021/12/03 00:52:53;;;;;;;5.88;1.55;;;2.90;99.90;;;;;;5014014;28;20137;-72
2021/12/03 00:55:20;;;;;;;5.10;1.40;;;2.90;99.90;;;;;;5015892;28;20043;-72
2021/12/03 00:57:46;;;;;;;5.55;1.20;;;;;;;;;;5014172;28;20072;-72
2021/12/03 01:00:23;;;;;;;5.35;1.63;;;2.70;99.90;;;;;;5014182;28;20038;-72
2021/12/03 01:02:49;;;;;;;3.70;1.30;;;;;;;;;;5022585;28;20482;-72
2021/12/03 01:05:15;;;;;;;6.75;1.38;;;;;;;;;;5010714;28;20038;-72
2021/12/03 01:07:41;;;;;;;5.05;1.10;;;;;;;;;;4997634;28;20050;-72
2021/12/03 01:10:08;;;;;;;3.55;1.33;;;2.90;99.90;;;;;;5011616;28;20116;-72
2021/12/03 01:12:35;;;;;;;5.88;1.50;;;;;;;;;;5013768;28;20054;-72
2021/12/03 01:15:01;;;;;;;3.60;1.30;;;;;;;;;;5014009;28;20077;-72
2021/12/03 01:17:27;;;;;;;5.82;1.45;;;;;;;;;;5013686;28;20048;-72
2021/12/03 01:19:53;;;;;;;7.57;1.50;;;;;;;;;;5013921;28;20140;-72
2021/12/03 01:22:19;;;;;;;5.35;1.23;;;;;;;;;;4997756;28;20057;-73
2021/12/03 01:24:45;;;;;;;6.07;1.50;;;;;;;;;;5013865;28;20498;-72
2021/12/03 01:27:11;;;;;;;8.52;1.50;;;;;;;;;;5013804;28;20038;-72
2021/12/03 01:29:37;;;;;;;7.22;1.48;;;;;;;;;;5013640;28;20037;-72
2021/12/03 01:32:04;;;;;;;4.95;1.20;;;3.60;99.90;;;;;;5013687;28;20083;-72
2021/12/03 01:34:30;;;;;;;3.95;1.25;;;;;;;;;;5014810;28;20034;-72
2021/12/03 01:36:56;;;;;;;7.05;1.30;;;;;;;;;;4997588;28;20124;-72
2021/12/03 01:39:22;;;;;;;4.90;1.42;;;;;;;;;;5013642;28;20087;-72
2021/12/03 01:41:48;;;;;;;4.32;1.60;;;;;;;;;;5013364;28;20093;-72
2021/12/03 01:44:15;;;;;;;10.35;1.65;;;;;;;;;;5013697;28;20042;-72
2021/12/03 01:46:41;;;;;;;4.72;1.23;;;;;;;;;;5013439;28;20041;-72
2021/12/03 01:49:10;;;;;;;5.65;1.40;;;;;;;;;;5013125;28;20525;-72
2021/12/03 01:51:36;;;;;;;6.82;1.80;;;;;;;;;;5013413;28;20046;-72
2021/12/03 01:54:02;;;;;;;4.57;1.40;;;;;;;;;;5013436;28;20042;-72
2021/12/03 01:56:29;;;;;;;9.48;1.40;;;;;;;;;;5013384;28;20053;-72
2021/12/03 01:58:55;;;;;;;8.55;1.40;;;;;;;;;;5012410;28;20040;-72
2021/12/03 02:01:25;;;;;;;7.07;1.50;;;3.20;99.90;;;;;;4996924;28;20422;-72
2021/12/03 02:03:55;;;;;;;5.47;1.30;;;3.00;99.90;;;;;;5012924;28;20100;-72
2021/12/03 02:06:22;;;;;;;7.50;1.30;;;3.00;99.90;;;;;;5013260;28;20045;-72
2021/12/03 02:08:48;;;;;;;4.20;1.45;;;3.20;99.90;;;;;;5013119;28;20034;-72
2021/12/03 02:11:15;;;;;;;2.58;1.40;;;;;;;;;;5012867;28;20033;-72
2021/12/03 02:13:41;;;;;;;4.72;1.38;;;;;;;;;;5012521;28;20137;-72
2021/12/03 02:16:08;;;;;;;7.45;1.83;;;3.30;99.90;;;;;;5012919;28;20042;-72
2021/12/03 02:18:34;;;;;;;6.25;1.50;;;;;;;;;;5012785;28;20046;-72
2021/12/03 02:21:02;;;;;;;6.30;2.00;;;3.20;99.90;;;;;;5012756;28;20474;-72
2021/12/03 02:23:28;;;;;;;6.25;1.60;;;;;;;;;;4996113;28;20049;-72
2021/12/03 02:25:56;;;;;;;4.45;1.25;;;3.20;99.90;;;;;;4996253;28;20037;-72
2021/12/03 02:28:27;;;;;;;5.63;1.30;;;3.40;99.90;;;;;;5012724;28;20038;-72
2021/12/03 02:30:53;;;;;;;5.18;1.20;;;;;;;;;;5012384;28;20124;-72
2021/12/03 02:33:20;;;;;;;5.10;1.35;;;;;;;;;;5010066;28;20042;-72
2021/12/03 02:35:46;;;;;;;6.47;1.77;;;;;;;;;;5012525;28;20121;-72
2021/12/03 02:38:17;;;;;;;5.28;1.23;;;3.40;99.90;;;;;;5012328;28;20045;-72
2021/12/03 02:40:43;;;;;;;6.28;1.10;;;;;;;;;;5012238;28;20552;-72
2021/12/03 02:43:09;;;;;;;7.13;1.77;;;;;;;;;;4995801;28;20124;-72
2021/12/03 02:45:35;;;;;;;5.53;1.27;;;;;;;;;;5012696;28;20072;-72
2021/12/03 02:48:04;;;;;;;6.38;1.13;;;3.10;99.90;;;;;;4996059;28;20445;-72
2021/12/03 02:50:30;;;;;;;4.35;1.50;;;;;;;;;;5011734;28;20383;-72
2021/12/03 02:52:56;;;;;;;4.38;1.20;;;;;;;;;;5011049;28;20162;-72
2021/12/03 02:55:23;;;;;;;4.55;1.20;;;;;;;;;;5012125;28;20044;-72
2021/12/03 02:57:49;;;;;;;5.30;1.20;;;;;;;;;;4995794;28;20497;-72
2021/12/03 03:00:18;;;;;;;3.85;1.20;;;3.30;99.90;;;;;;5012127;28;20044;-72
2021/12/03 03:02:45;;;;;;;4.07;1.20;;;3.30;99.90;;;;;;5026042;28;20057;-72
2021/12/03 03:05:13;;;;;;;2.88;1.15;;;3.20;99.90;;;;;;5011982;28;20470;-72
2021/12/03 03:07:39;;;;;;;4.53;1.20;;;;;;;;;;5011968;28;20042;-72
2021/12/03 03:10:09;;;;;;;8.85;1.55;;;;;;;;;;5011453;28;20474;-72
2021/12/03 03:12:35;;;;;;;6.18;1.20;;;2.70;99.90;;;;;;5011625;28;20133;-72
2021/12/03 03:15:01;;;;;;;5.80;1.20;;;;;;;;;;5012400;28;20108;-72
2021/12/03 03:17:30;;;;;;;2.33;1.10;;;3.20;99.90;;;;;;5011805;28;20030;-72
2021/12/03 03:19:57;;;;;;;7.10;1.45;;;3.20;99.90;;;;;;5011356;28;20038;-72
2021/12/03 03:22:24;;;;;;;2.33;1.40;;;;;;;;;;5011555;28;20042;-72
2021/12/03 03:24:50;;;;;;;5.90;2.05;;;3.60;99.90;;;;;;5011457;28;20038;-72
2021/12/03 03:27:18;;;;;;;5.57;1.75;;;3.20;99.90;;;;;;5011601;28;20038;-72
2021/12/03 03:29:45;;;;;;;7.65;2.47;;;;;;;;;;5011173;28;20112;-72
2021/12/03 03:32:11;;;;;;;3.63;1.60;;;;;;;;;;4995303;28;20038;-72
2021/12/03 03:34:38;;;;;;;9.65;2.35;;;3.80;99.90;;;;;;4995087;28;20037;-72
2021/12/03 03:37:04;;;;;;;7.13;1.73;;;3.10;99.90;;;;;;5011509;28;20041;-72
2021/12/03 03:39:30;;;;;;;5.57;1.42;;;;;;;;;;5011389;28;20049;-72
2021/12/03 03:41:57;;;;;;;9.90;2.10;;;;;;;;;;5011488;28;20117;-72
2021/12/03 03:44:23;;;;;;;4.95;1.63;;;3.30;99.90;;;;;;5011325;28;20041;-73
2021/12/03 03:46:51;;;;;;;8.15;1.70;;;3.20;99.90;;;;;;5011440;28;20512;-73
2021/12/03 03:49:17;;;;;;;3.78;1.65;;;;;;;;;;5010999;28;20073;-72
2021/12/03 03:51:44;;;;;;;7.30;1.90;;;;;;;;;;4994983;28;20034;-72
2021/12/03 03:54:10;;;;;;;5.88;1.88;;;;;;;;;;5011375;28;20042;-72
2021/12/03 03:56:36;;;;;;;7.40;2.15;;;;;;;;;;5011253;28;20033;-72
2021/12/03 03:59:02;;;;;;;8.38;2.15;;;;;;;;;;5011290;28;20042;-72
2021/12/03 04:01:28;;;;;;;8.20;2.63;;;;;;;;;;4994826;28;20514;-72
2021/12/03 04:03:54;;;;;;;6.20;2.33;;;;;;;;;;4995043;28;20037;-72
2021/12/03 04:06:21;;;;;;;5.80;2.47;;;;;;;;;;5011008;28;20481;-72
2021/12/03 04:08:47;;;;;;;5.60;2.40;;;3.20;99.90;;;;;;5011184;28;20045;-72
2021/12/03 04:11:16;;;;;;;9.23;2.65;;;3.30;99.90;;;;;;5011096;28;20124;-72
2021/12/03 04:13:43;;;;;;;11.18;3.08;;;;;;;;;;5010666;28;20108;-72
2021/12/03 04:16:09;;;;;;;10.98;4.22;;;;;;;;;;5010811;28;20084;-73
2021/12/03 04:18:35;;;;;;;8.55;2.78;;;;;;;;;;5010941;28;20072;-72
2021/12/03 04:21:02;;;;;;;5.55;2.47;;;;;;;;;;5010722;28;20034;-72
2021/12/03 04:23:28;;;;;;;8.73;2.95;;;;;;;;;;5015905;28;20048;-72
2021/12/03 04:25:54;;;;;;;7.55;2.72;;;;;;;;;;5012600;28;20394;-72
2021/12/03 04:28:20;;;;;;;13.13;2.50;;;3.30;99.90;;;;;;5015160;28;20038;-72
2021/12/03 04:30:48;;;;;;;8.48;2.22;;;3.40;99.90;;;;;;5015999;28;20469;-72
2021/12/03 04:33:14;;;;;;;6.45;2.25;;;;;;;;;;5014601;28;20046;-72
2021/12/03 04:35:40;;;;;;;7.53;2.90;;;;;;;;;;5014667;28;20402;-73
2021/12/03 04:38:06;;;;;;;10.80;3.03;;;;;;;;;;5015185;28;20390;-73
2021/12/03 04:40:34;;;;;;;11.32;3.53;;;3.40;99.90;;;;;;5014841;28;20438;-73
2021/12/03 04:43:00;;;;;;;14.10;3.00;;;;;;;;;;5014520;28;20525;-73
2021/12/03 04:45:27;;;;;;;7.90;2.30;;;3.50;99.90;;;;;;5014281;28;20056;-73
2021/12/03 04:47:54;;;;;;;12.73;2.40;;;;;;;;;;5011967;28;20116;-73
2021/12/03 04:50:21;;;;;;;8.85;2.60;;;;;;;;;;4997881;28;20042;-73
2021/12/03 04:52:47;;;;;;;8.02;2.25;;;;;;;;;;5014738;28;20046;-72
2021/12/03 04:55:14;;;;;;;10.48;2.70;;;3.70;99.90;;;;;;5013939;28;20034;-73
2021/12/03 04:57:40;;;;;;;11.23;2.60;;;3.50;99.90;;;;;;5027645;28;20052;-73
2021/12/03 05:00:11;;;;;;;6.28;2.55;;;4.30;99.90;;;;;;5014087;28;20041;-73
2021/12/03 05:02:38;;;;;;;8.38;2.17;;;;;;;;;;4998152;28;20103;-73
2021/12/03 05:05:05;;;;;;;9.55;2.35;;;;;;;;;;5014241;28;20498;-73
2021/12/03 05:10:06;;;;;;;12.20;2.58;;;3.60;99.90;;;;;;5014139;28;20046;-73
2021/12/03 05:12:32;;;;;;;10.07;2.65;;;;;;;;;;5016205;28;20081;-73
2021/12/03 05:14:59;;;;;;;7.13;2.00;;;;;;;;;;5014083;28;20049;-73
2021/12/03 05:17:25;;;;;;;6.03;1.98;;;;;;;;;;5013729;28;20065;-73
2021/12/03 05:19:51;;;;;;;7.07;2.50;;;;;;;;;;5013968;28;20045;-73
2021/12/03 05:22:17;;;;;;;8.25;1.95;;;;;;;;;;5014131;28;20046;-73
2021/12/03 05:24:47;;;;;;;11.70;2.22;;;3.80;99.90;;;;;;5011435;28;20490;-73
2021/12/03 05:27:18;;;;;;;5.53;2.05;;;3.80;99.90;;;;;;5013968;28;20049;-73
2021/12/03 05:29:45;;;;;;;7.22;1.98;;;;;;;;;;5013697;28;20099;-73
2021/12/03 05:32:11;;;;;;;7.32;1.80;;;;;;;;;;4995232;28;20116;-73
2021/12/03 05:34:38;;;;;;;7.05;1.63;;;;;;;;;;5012478;28;20099;-73
2021/12/03 05:37:06;;;;;;;2.95;1.50;;;3.90;99.90;;;;;;5013811;28;20069;-73
2021/12/03 05:39:32;;;;;;;9.43;1.88;;;;;;;;;;5013669;28;20069;-73
2021/12/03 05:41:58;;;;;;;11.52;2.10;;;;;;;;;;5011187;28;20041;-73
2021/12/03 05:44:25;;;;;;;4.53;1.85;;;;;;;;;;5013576;28;20042;-73
2021/12/03 05:46:51;;;;;;;6.50;1.50;;;;;;;;;;5013748;28;20052;-73
2021/12/03 05:49:17;;;;;;;13.35;2.00;;;;;;;;;;5013617;28;20038;-73
2021/12/03 05:51:43;;;;;;;7.35;1.70;;;;;;;;;;5013013;28;20080;-72
2021/12/03 05:54:09;;;;;;;6.97;1.77;;;;;;;;;;5013517;28;20395;-73
2021/12/03 05:56:36;;;;;;;7.30;1.70;;;;;;;;;;5012314;28;20065;-72
2021/12/03 05:59:02;;;;;;;8.80;2.15;;;;;;;;;;4993529;28;20049;-72
2021/12/03 06:01:28;;;;;;;8.27;2.20;;;;;;;;;;5008401;28;20042;-72
2021/12/03 06:03:55;;;;;;;5.65;2.05;;;;;;;;;;4987841;28;20144;-72
2021/12/03 06:06:21;;;;;;;10.60;2.40;;;;;;;;;;5010613;28;20482;-72
2021/12/03 06:08:47;;;;;;;8.65;2.47;;;;;;;;;;5014036;28;20144;-72
2021/12/03 06:11:14;;;;;;;7.65;1.88;;;;;;;;;;5013379;28;20038;-72
2021/12/03 06:13:40;;;;;;;7.15;2.33;;;;;;;;;;5013450;28;20120;-72
2021/12/03 06:16:07;;;;;;;7.90;2.30;;;3.60;99.90;;;;;;5013594;28;20037;-72
2021/12/03 06:18:34;;;;;;;8.88;2.50;;;;;;;;;;5013370;28;20044;-72
2021/12/03 06:21:00;;;;;;;6.68;2.28;;;;;;;;;;5013621;28;20077;-72
2021/12/03 06:23:26;;;;;;;7.60;2.42;;;;;;;;;;5013731;28;20137;-72
2021/12/03 06:25:52;;;;;;;11.85;2.97;;;;;;;;;;4997399;28;20042;-72
2021/12/03 06:28:18;;;;;;;5.68;2.50;;;;;;;;;;5014228;28;20046;-72
2021/12/03 06:30:44;;;;;;;3.88;2.53;;;;;;;;;;5013065;28;20484;-73
2021/12/03 06:33:10;;;;;;;10.13;3.20;;;;;;;;;;5013710;28;20037;-72
2021/12/03 06:35:36;;;;;;;9.00;2.58;;;;;;;;;;5012307;28;20037;-71
2021/12/03 06:38:02;;;;;;;8.88;3.05;;;;;;;;;;5011942;28;20038;-71
2021/12/03 06:40:29;;;;;;;8.70;2.45;;;;;;;;;;5012019;28;20050;-71
2021/12/03 06:42:55;;;;;;;5.90;3.00;;;;;;;;;;5012025;28;20037;-71
2021/12/03 06:45:22;;;;;;;12.45;2.97;;;3.70;99.90;;;;;;5012316;28;20482;-71
2021/12/03 06:47:48;;;;;;;11.00;2.90;;;;;;;;;;5012563;28;20046;-71
2021/12/03 06:50:17;;;;;;;9.57;2.75;;;3.70;99.90;;;;;;5013126;28;20061;-71
2021/12/03 06:52:48;;;;;;;7.80;3.00;;;3.70;99.90;;;;;;4996771;28;20045;-71
2021/12/03 06:55:15;;;;;;;6.85;2.90;;;;;;;;;;5012872;28;20046;-70
2021/12/03 06:57:44;;;;;;;16.38;3.60;;;3.90;99.90;;;;;;4988120;28;20391;-71
2021/12/03 07:00:13;;;;;;;10.05;3.30;;;3.40;99.90;;;;;;5004781;28;20069;-71
2021/12/03 07:02:39;;;;;;;17.58;4.40;;;;;;;;;;5046437;28;20493;-71
2021/12/03 07:05:07;;;;;;;16.45;4.25;;;3.00;99.90;;;;;;5046098;28;20041;-71
2021/12/03 07:07:33;;;;;;;14.40;4.35;;;;;;;;;;5014382;28;20099;-71
2021/12/03 07:10:00;;;;;;;10.77;4.75;;;;;;;;;;5045866;28;20042;-71
2021/12/03 07:12:26;;;;;;;15.15;4.75;;;;;;;;;;5045928;28;20038;-70
2021/12/03 07:14:53;;;;;;;9.25;4.30;;;;;;;;;;5028939;28;20054;-70
2021/12/03 07:17:19;;;;;;;10.18;4.80;;;;;;;;;;5028265;28;20041;-70
2021/12/03 07:19:45;;;;;;;11.10;5.10;;;;;;;;;;5029672;28;20502;-70
2021/12/03 07:22:11;;;;;;;17.45;4.63;;;;;;;;;;5045850;28;20050;-70
2021/12/03 07:24:38;;;;;;;14.82;5.30;;;3.90;99.90;;;;;;5046012;28;20034;-70
2021/12/03 07:27:05;;;;;;;11.52;4.70;;;3.80;99.90;;;;;;5012701;28;20046;-70
2021/12/03 07:29:32;;;;;;;12.73;4.90;;;;;;;;;;5045927;28;20050;-70
2021/12/03 07:31:58;;;;;;;15.07;4.20;;;;;;;;;;5013984;28;20046;-70
2021/12/03 07:34:24;;;;;;;11.48;4.45;;;3.30;99.90;;;;;;5013807;28;20048;-70
2021/12/03 07:36:50;;;;;;;19.25;4.35;;;;;;;;;;5012462;28;20128;-70
2021/12/03 07:39:16;;;;;;;13.27;3.88;;;;;;;;;;5045757;28;20038;-70
2021/12/03 07:41:42;;;;;;;11.48;3.20;;;;;;;;;;5045637;28;20108;-72
2021/12/03 07:44:09;;;;;;;9.82;3.95;;;4.00;99.90;;;;;;5045762;28;20367;-71
2021/12/03 07:46:35;;;;;;;15.18;3.30;;;;;;;;;;5011483;28;20107;-70
2021/12/03 07:49:02;;;;;;;11.40;3.47;;;;;;;;;;5045370;28;20072;-70
2021/12/03 07:51:29;;;;;;;7.47;3.15;;;;;;;;;;5046005;28;20081;-71
2021/12/03 07:53:55;;;;;;;9.13;3.75;;;;;;;;;;5045633;28;20060;-71
2021/12/03 07:56:21;;;;;;;11.05;3.25;;;;;;;;;;5045107;28;20092;-71
2021/12/03 07:58:47;;;;;;;9.23;2.88;;;;;;;;;;5045452;28;20037;-72
2021/12/03 08:01:13;;;;;;;12.20;3.10;;;;;;;;;;5028734;28;20049;-71
2021/12/03 08:03:39;;;;;;;7.90;2.65;;;;;;;;;;5045388;28;20486;-72
2021/12/03 08:06:09;;;;;;;9.50;3.00;;;3.20;99.90;;;;;;5045426;28;20081;-71
2021/12/03 08:08:37;;;;;;;9.15;3.15;;;;;;;;;;4995747;28;20045;-71
2021/12/03 08:11:03;;;;;;;11.25;3.22;;;4.80;99.90;;;;;;5045309;28;20096;-71
2021/12/03 08:13:29;;;;;;;13.23;3.60;;;3.10;99.90;;;;;;5012032;28;20058;-71
2021/12/03 08:15:55;;;;;;;18.33;3.65;;;;;;;;;;5013412;28;20046;-71
2021/12/03 08:18:21;;;;;;;9.77;3.33;;;;;;;;;;5028723;28;20041;-71
2021/12/03 08:20:47;;;;;;;14.77;3.47;;;;;;;;;;5028775;28;20045;-71
2021/12/03 08:23:13;;;;;;;13.25;3.92;;;;;;;;;;5045184;28;20073;-71
2021/12/03 08:25:39;;;;;;;10.82;3.83;;;;;;;;;;5045640;28;20045;-71
2021/12/03 08:28:06;;;;;;;14.77;3.53;;;;;;;;;;5045249;28;20049;-71
2021/12/03 08:30:32;;;;;;;11.90;3.38;;;;;;;;;;5045015;28;20042;-71
2021/12/03 08:32:59;;;;;;;14.68;2.92;;;;;;;;;;5037455;28;20046;-71
2021/12/03 08:35:25;;;;;;;15.35;3.33;;;;;;;;;;5011904;28;20546;-71
2021/12/03 08:37:52;;;;;;;10.10;3.20;;;4.30;99.90;;;;;;5012193;28;20390;-71
2021/12/03 08:40:19;;;;;;;11.77;2.60;;;4.30;99.90;;;;;;5012346;28;20084;-71
2021/12/03 08:42:45;;;;;;;8.30;3.00;;;;;;;;;;4995837;28;20143;-71
2021/12/03 08:45:12;;;;;;;7.90;2.35;;;4.40;99.90;;;;;;5011946;28;20045;-71
2021/12/03 08:47:39;;;;;;;11.93;3.38;;;;;;;;;;5011799;28;20045;-71
2021/12/03 08:50:12;;;;;;;10.52;2.70;;;;;;;;;;4995803;28;20121;-71
2021/12/03 08:55:23;;;;;;;19.33;2.75;;;;;;;;;;5011731;28;20133;-71
2021/12/03 08:57:49;;;;;;;10.10;2.60;;;;;;;;;;5011900;28;20509;-71
2021/12/03 09:00:19;;;;;;;13.13;3.35;;;4.10;99.90;;;;;;5011753;28;20064;-71
2021/12/03 09:02:45;;;;;;;13.13;3.33;;;;;;;;;;5011201;28;20042;-71
2021/12/03 09:05:12;;;;;;;10.35;2.45;;;4.50;99.90;;;;;;5009501;28;20354;-71
2021/12/03 09:07:38;;;;;;;11.40;3.25;;;;;;;;;;5010149;28;20128;-71
2021/12/03 09:10:07;;;;;;;7.53;2.97;;;4.60;99.90;;;;;;5014102;28;20049;-71
2021/12/03 09:12:33;;;;;;;12.73;2.90;;;;;;;;;;5015116;28;20479;-71
2021/12/03 09:15:04;;;;;;;11.68;2.88;;;;;;;;;;5015011;28;20089;-71
2021/12/03 09:17:58;;;;;;;9.60;2.60;;;;;;;;;;5015108;28;20802;-71
2021/12/03 09:22:53;;;;;;;10.48;2.53;;;;;;;;;;5014860;28;20108;-71
2021/12/03 09:25:24;;;;;;;14.88;3.00;;;4.80;99.90;;;;;;5014882;28;20144;-71
2021/12/03 09:27:51;;;;;;;8.20;2.22;;;4.60;99.90;;;;;;5014893;28;20050;-71
2021/12/03 09:30:17;;;;;;;7.68;2.20;;;;;;;;;;5014754;28;20056;-71
2021/12/03 09:32:48;;;;;;;11.95;2.67;;;;;;;;;;5016044;28;20038;-71
2021/12/03 09:35:14;;;;;;;8.95;2.53;;;;;;;;;;5014787;28;20045;-71
2021/12/03 09:37:40;;;;;;;8.25;2.70;;;;;;;;;;5014794;28;20077;-71
2021/12/03 09:40:09;;;;;;;14.65;2.60;;;;;;;;;;5014937;28;20517;-71
2021/12/03 09:42:37;;;;;;;19.40;4.35;;;;;;;;;;5014643;28;20046;-71
2021/12/03 09:45:04;;;;;;;24.88;3.95;;;5.00;99.90;;;;;;5014631;28;20046;-71
2021/12/03 09:47:31;;;;;;;15.70;3.30;;;;;;;;;;5014459;28;20613;-71
2021/12/03 09:49:59;;;;;;;32.28;4.90;;;4.70;99.90;;;;;;5014458;28;20042;-70
2021/12/03 09:55:12;;;;;;;15.55;3.05;;;4.90;99.90;;;;;;5014317;28;20512;-70
2021/12/03 09:57:43;;;;;;;12.43;3.40;;;;;;;;;;5014199;28;20050;-75
2021/12/03 10:13:55;;;;;;;13.18;3.50;;;5.20;99.90;;;;;;5013823;28;20057;-71
2021/12/03 10:16:52;;;;;;;8.93;3.22;;;;;;;;;;5015258;28;20129;-71
2021/12/03 10:19:33;;;;;;;13.40;3.20;;;;;;;;;;5013447;28;20568;-71
2021/12/03 10:30:09;;;;;;;14.88;3.55;;;;;;;;;;5012286;28;20053;-70
2021/12/03 10:32:51;;;;;;;14.25;3.50;;;;;;;;;;4997370;28;20046;-70
2021/12/03 10:35:49;;;;;;;12.90;3.28;;;;;;;;;;5012512;28;20052;-70
2021/12/03 10:49:04;;;;;;;13.32;4.10;;;4.70;99.90;;;;;;5011819;28;20056;-70
2021/12/03 10:56:47;;;;;;;15.90;4.00;;;5.00;99.90;;;;;;5012198;28;20042;-70
2021/12/03 11:28:00;;;;;;;14.05;5.40;;;;;;;;;;5011764;28;20042;-71
2021/12/03 11:44:48;;;;;;;17.67;5.93;;;;;;;;;;5001682;28;20137;-70
2021/12/03 11:47:40;;;;;;;17.98;5.72;;;;;;;;;;5007460;28;20049;-70
2021/12/03 14:04:08;;;;;;;12.20;7.05;;;;;;;;;;5012801;28;20080;-70
2021/12/03 14:36:48;;;;;;;19.85;8.60;;;;;;;;;;5010677;28;20490;-71
2021/12/03 15:00:02;;;;;;;15.05;8.93;;;4.60;99.90;;;;;;5010466;28;20413;-71
2021/12/03 15:02:55;;;;;;;14.48;9.38;;;;;;;;;;5011851;28;20041;-70
2021/12/03 15:08:26;;;;;;;17.73;10.27;;;4.90;99.90;;;;;;5011633;28;20050;-71
2021/12/03 15:31:46;;;;;;;12.63;11.18;;;;;;;;;;5012315;28;20065;-70
2021/12/03 16:08:52;;;;;;;13.75;10.90;;;;;;;;;;5012162;28;20445;-70
2021/12/03 16:14:13;;;;;;;12.68;11.38;;;;;;;;;;5012257;28;20057;-70
2021/12/03 16:27:30;;;;;;;15.20;12.38;;;;;;;;;;5015013;28;20050;-70
2021/12/03 16:49:33;;;;;;;14.85;12.25;;;;;;;;;;5015954;28;20045;-70
2021/12/03 16:54:07;;;;;;;15.18;11.60;;;5.00;99.90;;;;;;5015537;28;20054;-70
2021/12/03 16:56:35;;;;;;;14.60;12.32;;;5.20;99.90;;;;;;5015040;28;20042;-70
2021/12/03 16:59:01;;;;;;;15.75;12.52;;;;;;;;;;5015377;28;20128;-70
2021/12/03 17:50:07;;;;;;;13.77;10.70;;;;;;;;;;5014527;28;20084;-70
2021/12/03 18:00:21;;;;;;;14.52;11.73;;;;;;;;;;5014397;28;20065;-70
2021/12/03 18:02:50;;;;;;;14.35;11.57;;;;;;;;;;5014104;28;20053;-70
2021/12/03 18:14:14;;;;;;;16.33;13.17;;;5.30;99.90;;;;;;4983588;28;20451;-70
2021/12/03 18:51:33;;;;;;;20.73;15.75;;;;;;;;;;5013274;28;20088;-70
2021/12/03 18:54:21;;;;;;;23.27;16.02;;;;;;;;;;5013122;28;20042;-70
2021/12/03 18:56:50;;;;;;;22.15;17.00;;;4.90;99.90;;;;;;5013147;28;20045;-70
2021/12/03 18:59:16;;;;;;;23.40;16.20;;;;;;;;;;5013193;28;20053;-70
2021/12/03 19:01:42;;;;;;;22.73;16.73;;;;;;;;;;5013487;28;20084;-70
2021/12/03 19:07:26;;;;;;;24.85;17.25;;;5.60;99.90;;;;;;5014207;28;20038;-70
2021/12/03 19:09:43;;;;;;;23.60;17.42;;;;;;;;;;5008296;28;20516;-70
2021/12/03 19:12:20;;;;;;;22.02;16.73;;;;;;;;;;5004975;28;20395;-69
2021/12/03 19:14:52;;;;;;;25.77;17.75;;;4.80;99.90;;;;;;5007260;28;20054;-70
2021/12/03 19:17:18;;;;;;;27.40;18.07;;;5.30;99.90;;;;;;5012579;28;20547;-70
2021/12/03 19:19:46;;;;;;;29.27;19.15;;;;;;;;;;5011947;28;20513;-70
2021/12/03 19:22:14;;;;;;;24.65;18.33;;;5.40;99.90;;;;;;5011626;28;20107;-70
2021/12/03 19:24:40;;;;;;;50.50;21.63;;;;;;;;;;5011518;28;20072;-70
2021/12/03 19:27:08;;;;;;;28.25;20.73;;;;;;;;;;5005335;28;20049;-70
2021/12/03 19:29:34;;;;;;;31.33;21.20;;;5.50;99.90;;;;;;5011743;28;20050;-70
2021/12/03 19:32:00;;;;;;;31.05;20.27;;;;;;;;;;4980331;28;20481;-70
2021/12/03 19:34:26;;;;;;;30.45;21.42;;;;;;;;;;5012447;28;20048;-70
2021/12/03 19:36:55;;;;;;;30.13;21.00;;;;;;;;;;5012344;28;20046;-70
2021/12/03 19:39:23;;;;;;;34.65;22.85;;;5.70;99.90;;;;;;5012359;28;20054;-70
2021/12/03 19:44:22;;;;;;;39.90;24.50;;;;;;;;;;5011592;28;20049;-70
2021/12/03 19:46:51;;;;;;;38.85;25.55;;;5.50;99.90;;;;;;4996140;28;20112;-70
2021/12/03 19:51:58;;;;;;;40.88;24.38;;;5.60;99.90;;;;;;5012515;28;20409;-70
2021/12/03 19:54:24;;;;;;;41.35;26.15;;;5.50;99.90;;;;;;4995306;28;20038;-70
2021/12/03 19:56:50;;;;;;;38.92;24.98;;;;;;;;;;5012292;28;20049;-70
2021/12/03 19:59:18;;;;;;;39.97;26.20;;;5.50;99.90;;;;;;5011823;28;20034;-70
2021/12/03 20:01:45;;;;;;;42.40;26.25;;;;;;;;;;5012296;28;20064;-72
2021/12/03 20:04:13;;;;;;;41.38;26.02;;;;;;;;;;4995487;28;20038;-71
2021/12/03 20:06:44;;;;;;;40.00;25.92;;;5.50;99.90;;;;;;5011927;28;20049;-70
2021/12/03 20:09:17;;;;;;;46.22;27.08;;;6.20;99.90;;;;;;5011672;28;20045;-71
2021/12/03 20:11:48;;;;;;;44.22;27.52;;;;;;;;;;5012239;28;20049;-70
2021/12/03 20:14:16;;;;;;;45.85;27.00;;;;;;;;;;5011550;28;20054;-70
2021/12/03 20:21:58;;;;;;;48.03;28.98;;;;;;;;;;5012320;28;20049;-70
2021/12/03 20:24:51;;;;;;;51.35;28.88;;;;;;;;;;5011915;28;20368;-70
2021/12/03 20:27:16;;;;;;;48.83;27.90;;;5.90;99.90;;;;;;5011937;28;20056;-70
2021/12/03 20:37:14;;;;;;;46.88;27.85;;;;;;;;;;5012050;28;20076;-70
2021/12/03 20:39:42;;;;;;;50.28;28.05;;;;;;;;;;5011787;28;20045;-70
2021/12/03 20:50:03;;;;;;;51.45;28.58;;;;;;;;;;5000635;28;20078;-70
2021/12/03 21:08:44;;;;;;;48.28;27.30;;;;;;;;;;5004163;28;20434;-70
2021/12/03 21:11:22;;;;;;;47.10;28.02;;;;;;;;;;5005236;28;20077;-70
2021/12/03 21:13:51;;;;;;;50.85;27.65;;;5.40;99.90;;;;;;4988837;28;20055;-70
2021/12/03 21:24:05;;;;;;;49.70;27.70;;;6.20;99.90;;;;;;5004518;28;20415;-70
2021/12/03 21:26:32;;;;;;;48.97;27.98;;;;;;;;;;5034519;28;20049;-70
2021/12/03 21:42:06;;;;;;;53.03;28.95;;;;;;;;;;5004671;28;20038;-70
2021/12/03 21:44:32;;;;;;;58.70;29.75;;;;;;;;;;5005684;28;20034;-71
2021/12/03 21:46:58;;;;;;;54.72;29.45;;;;;;;;;;5007083;28;20084;-70
2021/12/03 21:49:25;;;;;;;52.17;28.63;;;;;;;;;;5014160;28;20038;-70
2021/12/03 21:51:50;;;;;;;54.25;27.73;;;5.10;99.90;;;;;;5007138;28;20041;-69
2021/12/03 21:54:17;;;;;;;56.70;29.13;;;;;;;;;;5014453;28;20050;-70
2021/12/03 21:56:45;;;;;;;55.00;28.77;;;5.50;99.90;;;;;;5014093;28;20084;-70
2021/12/03 21:59:18;;;;;;;57.78;29.75;;;4.90;99.90;;;;;;5014042;28;20054;-70
2021/12/03 22:01:44;;;;;;;58.35;29.30;;;;;;;;;;5014017;28;20190;-70
2021/12/03 22:04:10;;;;;;;56.83;28.77;;;;;;;;;;4998028;28;20410;-70
2021/12/03 22:06:37;;;;;;;55.00;28.00;;;;;;;;;;5014228;28;20037;-70
2021/12/03 22:09:04;;;;;;;55.55;28.10;;;;;;;;;;5013861;28;20520;-70
2021/12/03 22:11:30;;;;;;;52.45;27.95;;;;;;;;;;5013821;28;20045;-70
2021/12/03 22:13:56;;;;;;;54.35;28.02;;;5.70;99.90;;;;;;5013839;28;20060;-70
2021/12/03 22:16:22;;;;;;;54.10;26.98;;;;;;;;;;5012747;28;20045;-70
2021/12/03 22:18:49;;;;;;;54.88;28.02;;;;;;;;;;5014089;28;20037;-70
2021/12/03 22:21:17;;;;;;;52.67;26.95;;;5.40;99.90;;;;;;5014858;28;20690;-71
2021/12/03 22:23:43;;;;;;;53.22;27.45;;;;;;;;;;5014105;28;20042;-70
2021/12/03 22:26:11;;;;;;;53.90;27.02;;;5.40;99.90;;;;;;5013447;28;20099;-70
2021/12/03 22:28:37;;;;;;;57.05;27.23;;;;;;;;;;5013821;28;20050;-70
2021/12/03 22:31:03;;;;;;;53.72;27.15;;;;;;;;;;5013411;28;20382;-70
2021/12/03 22:33:30;;;;;;;54.00;27.75;;;;;;;;;;4997288;28;20496;-70
2021/12/03 22:35:56;;;;;;;50.30;26.67;;;;;;;;;;5013694;28;20477;-70
2021/12/03 22:38:23;;;;;;;56.22;26.23;;;;;;;;;;5013642;28;20441;-70
2021/12/03 22:40:49;;;;;;;52.10;27.13;;;4.90;99.90;;;;;;5013291;28;20050;-70
2021/12/03 22:43:16;;;;;;;48.88;26.48;;;;;;;;;;5013251;28;20056;-71
2021/12/03 22:51:03;;;;;;;49.10;27.45;;;5.50;99.90;;;;;;5013101;28;20053;-71
2021/12/03 22:53:29;;;;;;;52.50;27.13;;;;;;;;;;5013426;28;20053;-71
2021/12/03 22:55:55;;;;;;;50.10;26.20;;;;;;;;;;5013296;28;20050;-71
2021/12/03 22:58:22;;;;;;;47.05;25.95;;;;;;;;;;5013030;28;20121;-71
2021/12/03 23:00:48;;;;;;;48.28;25.67;;;;;;;;;;5012973;28;20038;-71
2021/12/03 23:03:14;;;;;;;50.03;26.17;;;5.40;99.90;;;;;;5012934;28;20050;-71